Saint Charles, South Dakota
Current Conditions -  °F | °C
As of 9:53 PM on Monday 20 Oct 2014 (Local Time) from KICR Reporting Station
Clear Clear  
Wind Chill: 14°   Ceiling: Unl
Heat Index: 14°   Visibility: 10mi
Dew Point:   Wind: 9mph
Humidity: 51%   Direction: 130°SE
Pressure: 29.97"   Gusts: NA
Location:  43.09°N, 99.1°W
Report Text: KICR 210253Z AUTO 13008KT 10SM CLR 14/04 A2997 RMK AO2 SLP148 T01440044 58003
Loading
Personal Weather Stations






























Interactive Weather Map
Tropical Storm Tracking
New forecast layout! Learn more

10-Day Weather Forecast

Advertisements
Track Severe Weather on mobile